Terminal Aerodrome Forecast
Issued by NWS Northern Indiana

Home | Current Version | Previous Version | Graphics & Text | Print | Product List | Glossary On
Versions: 1 2 3 4 5 6 7 8 9 10 11 12 13 14 15 16 17 18
314
FTUS43 KIWX 250539
TAFFWA
TAF
KFWA 250539Z 2506/2606 21010KT P6SM BKN080
     FM251000 23004KT P6SM VCTS SCT030CB BKN100
     FM251300 22007KT P6SM BKN250
     FM251800 22008KT P6SM VCTS BKN045CB
     FM252300 27009KT P6SM BKN080=

USA.gov is the U.S. government's official web portal to all federal, state and local government web resources and services.